Onweer radar Meer informatie blitzortung!


Regen radar Meer informatie rain snow radar


Andere websites:

Template documentation
and downloads

And another site

Weather-Template Info-Forum

Webcam-Havenmond

Webcam-Havenkantoor

Webcam-Werkhaven

Webcam-Westhaven



Het weer levert geen direct gevaar op.    Er zijn geen waarschuwingen afgegeven.

METAR rapporten vliegvelden

   
EBAW - Antwerp
Gewijzigd: 14-12-2018 10:50
Grotendeels bewolkt  
Grotendeels bewolkt  
   Wind: ONO 9.3 km/h
Wind: ONO 9.3 km/h
Temperatuur: 0°C
Voelt als: -3°C
Dauwpunt: -1°C
Vochtigheid: 93%
Barometer: 1023 hPa
Bewolking: Grotendeels bewolkt
Zicht: 6 km
Bewolking: Licht bewolkt 700 ft,
Grotendeels bewolkt 3700 ft
EBAW 140950Z 06005KT 6000 FEW007 BKN037 00/M01 Q1023 NOSIG
EBLG - Li├Ęge
Gewijzigd: 14-12-2018 10:50
Grotendeels bewolkt  
Grotendeels bewolkt  
   Wind: Oosten 9.3 km/h
Wind: Oosten 9.3 km/h
Temperatuur: 0°C
Voelt als: -3°C
Dauwpunt: -5°C
Vochtigheid: 69%
Barometer: 1022 hPa
Bewolking: Grotendeels bewolkt
Zicht: meer dan 10 km
Bewolking: Grotendeels bewolkt 3200 ft
EBLG 140950Z 08005KT 040V110 9999 BKN032 00/M05 Q1022 NOSIG
EBCV - Mons/Bergen
Gewijzigd: 14-12-2018 10:55
Nevel, Bewolking  
Nevel, Bewolking  
   Wind: NO 5.6 km/h
Wind: NO 5.6 km/h
Temperatuur: 0°C
Voelt als: -2°C
Dauwpunt: -1°C
Vochtigheid: 93%
Barometer: 1023 hPa
Bewolking: Bewolking
Zicht: 3 km
Bewolking: Bewolking 3400 ft
EBCV 140955Z AUTO 05003KT 3400 BR OVC034/// M00/M01 Q1023 YLO
EHBK - Maastricht
Gewijzigd: 14-12-2018 10:55
Bewolking  
Bewolking  
   Wind: NO 11.1 km/h
Wind: NO 11.1 km/h
Temperatuur: 1°C
Voelt als: -2°C
Dauwpunt: -3°C
Vochtigheid: 75%
Barometer: 1022 hPa
Bewolking: Bewolking
Zicht: meer dan 10 km
Bewolking: Grotendeels bewolkt 3300 ft,
Bewolking 3700 ft
EHBK 140955Z AUTO 05006KT 9999 BKN033 OVC037 01/M03 Q1022 NOSIG
ELLX - Luxemburg
Gewijzigd: 14-12-2018 10:50
Grotendeels bewolkt  
Grotendeels bewolkt  
   Wind: ONO 14.8 km/h
Wind: ONO 14.8 km/h
Temperatuur: -1°C
Voelt als: -6°C
Dauwpunt: -6°C
Vochtigheid: 69%
Barometer: 1019 hPa
Bewolking: Grotendeels bewolkt
Zicht: meer dan 10 km
Bewolking: Grotendeels bewolkt 2700 ft
ELLX 140950Z 06008KT 9999 BKN027 M01/M06 Q1019 NOSIG
EBOS - Oostende
Gewijzigd: 14-12-2018 10:50
Gedeeltelijk bewolkt  
Gedeeltelijk bewolkt  
   Wind: Oosten 11.1 km/h
Wind: Oosten 11.1 km/h
Temperatuur: 0°C
Voelt als: -3°C
Dauwpunt: -2°C
Vochtigheid: 87%
Barometer: 1023 hPa
Bewolking: Gedeeltelijk bewolkt
Zicht: 6 km
Bewolking: Licht bewolkt 700 ft,
Gedeeltelijk bewolkt 4000 ft
EBOS 140950Z 08006KT 6000 FEW007 SCT040 00/M02 Q1023 NOSIG

Script ontwikkeld door  Saratoga-weather.org Aangepast voor de template door  Weerstation Leuven

U vindt ons ook hier:

Het Weer Aktueel

European Weather Network

WeatherCloud

Weather Underground

Benelux Weer Netwerk

AWEKAS

Apparatuur in gebruik:

Weerstation
Davis VP2

Weerprogramma
Meteohub

Weercomputer
My Computer

Webleverancier
My provider

Davis VP2

Meteohub

My Computer

My provider